Loganville, Pennsylvania
Current Conditions -  °F | °C
As of 11:53 AM on Saturday 22 Nov 2014 (Local Time) from KTHV Reporting Station
Clear Clear  
Wind Chill: 37°   Ceiling: Unl
Heat Index: 42°   Visibility: 10mi
Dew Point: 13°   Wind: 9mph
Humidity: 31%   Direction: 220°SW
Pressure: 30.37"   Gusts: NA
Location:  39.86°N, 76.71°W
Report Text: KTHV 221653Z AUTO 22008KT 180V240 10SM CLR 06/M11 A3037 RMK AO2 SLP294 T00561106
Loading
Personal Weather Stations






























Interactive Weather Map New forecast layout! Learn more

10-Day Weather Forecast

Advertisements
Track Severe Weather on mobile